createdAt,value
2018-09-27T00:02:27.447Z,16.10
2018-09-27T00:04:56.128Z,16.10
2018-09-27T00:07:25.491Z,16.10
2018-09-27T00:09:53.767Z,16.10
2018-09-27T00:12:21.998Z,16.10
2018-09-27T00:14:50.273Z,16.10
2018-09-27T00:17:18.565Z,16.00
2018-09-27T00:19:46.758Z,16.10
2018-09-27T00:22:14.948Z,16.10
2018-09-27T00:24:43.292Z,16.10
2018-09-27T00:27:11.690Z,16.10
2018-09-27T00:29:40.003Z,16.10
2018-09-27T00:32:08.653Z,16.10
2018-09-27T00:34:37.293Z,16.20
2018-09-27T00:37:05.712Z,16.20
2018-09-27T00:39:34.148Z,16.20
2018-09-27T00:42:02.428Z,16.20
2018-09-27T00:44:31.330Z,16.20
2018-09-27T00:46:59.831Z,16.10
2018-09-27T00:49:28.027Z,16.20
2018-09-27T00:51:56.398Z,16.20
2018-09-27T00:54:24.843Z,16.20
2018-09-27T00:56:53.303Z,16.20
2018-09-27T00:59:21.840Z,16.20
2018-09-27T01:01:50.185Z,16.20
2018-09-27T01:04:19.186Z,16.20
2018-09-27T01:06:47.483Z,16.20
2018-09-27T01:09:16.747Z,16.20
2018-09-27T01:11:44.949Z,16.10
2018-09-27T01:14:13.271Z,16.10
2018-09-27T01:16:41.771Z,16.00
2018-09-27T01:19:10.264Z,16.10
2018-09-27T01:21:38.561Z,16.10
2018-09-27T01:24:06.918Z,16.10
2018-09-27T01:26:35.295Z,16.10
2018-09-27T01:29:03.633Z,16.10
2018-09-27T01:31:31.849Z,16.10
2018-09-27T01:34:00.201Z,16.10
2018-09-27T01:36:28.814Z,16.10
2018-09-27T01:38:57.425Z,16.10
2018-09-27T01:41:26.668Z,16.20
2018-09-27T01:43:54.999Z,16.20
2018-09-27T01:46:23.405Z,16.20
2018-09-27T01:48:52.349Z,16.30
2018-09-27T01:51:20.713Z,16.20
2018-09-27T01:53:49.049Z,16.20
2018-09-27T01:56:17.622Z,16.20
2018-09-27T01:58:45.871Z,16.20
2018-09-27T02:01:14.085Z,16.20
2018-09-27T02:03:42.372Z,16.20
2018-09-27T02:06:10.749Z,16.10
2018-09-27T02:08:39.606Z,16.20
2018-09-27T02:11:08.078Z,16.20
2018-09-27T02:13:36.465Z,16.20
2018-09-27T02:16:04.858Z,16.20
2018-09-27T02:18:39.962Z,16.30
2018-09-27T02:21:08.278Z,16.20
2018-09-27T02:23:37.777Z,16.20
2018-09-27T02:26:06.591Z,16.20
2018-09-27T02:28:34.905Z,16.20
2018-09-27T02:31:03.137Z,16.20
2018-09-27T02:33:31.722Z,16.20
2018-09-27T02:36:00.262Z,16.20
2018-09-27T02:38:28.636Z,16.20
2018-09-27T02:40:57.045Z,16.20
2018-09-27T02:43:25.624Z,16.20
2018-09-27T02:45:54.505Z,16.10
2018-09-27T02:48:23.048Z,16.10
2018-09-27T02:50:51.715Z,16.10
2018-09-27T02:53:20.044Z,16.00
2018-09-27T02:55:48.623Z,16.00
2018-09-27T02:58:17.191Z,16.10
2018-09-27T03:00:45.906Z,16.10
2018-09-27T03:03:15.730Z,16.10
2018-09-27T03:05:44.124Z,16.10
2018-09-27T03:08:13.642Z,16.20
2018-09-27T03:10:42.124Z,16.10
2018-09-27T03:13:10.475Z,16.10
2018-09-27T03:15:38.974Z,16.10
2018-09-27T03:18:07.389Z,16.20
2018-09-27T03:20:35.720Z,16.20
2018-09-27T03:23:04.042Z,16.20
2018-09-27T03:25:32.383Z,16.20
2018-09-27T03:28:00.886Z,16.20
2018-09-27T03:30:29.264Z,16.20
2018-09-27T03:32:57.606Z,16.20
2018-09-27T03:35:25.804Z,16.10
2018-09-27T03:37:54.108Z,16.20
2018-09-27T03:40:22.653Z,16.10
2018-09-27T03:42:51.116Z,16.10
2018-09-27T03:45:19.706Z,16.10
2018-09-27T03:47:48.192Z,16.20
2018-09-27T03:50:17.249Z,16.20
2018-09-27T03:52:45.773Z,16.30
2018-09-27T03:55:14.107Z,16.30
2018-09-27T03:57:42.650Z,16.20
2018-09-27T04:00:11.298Z,16.30
2018-09-27T04:02:39.637Z,16.20
2018-09-27T04:05:08.272Z,16.30
2018-09-27T04:07:36.786Z,16.30
2018-09-27T04:10:05.194Z,16.30
2018-09-27T04:12:33.669Z,16.30
2018-09-27T04:15:01.951Z,16.40
2018-09-27T04:17:30.630Z,16.40
2018-09-27T04:19:58.978Z,16.40
2018-09-27T04:22:27.305Z,16.40
2018-09-27T04:24:55.544Z,16.30
2018-09-27T04:27:23.932Z,16.30
2018-09-27T04:29:52.360Z,16.30
2018-09-27T04:32:20.975Z,16.20
2018-09-27T04:34:49.430Z,16.20
2018-09-27T04:37:18.168Z,16.20
2018-09-27T04:39:47.002Z,16.30
2018-09-27T04:42:15.458Z,16.30
2018-09-27T04:44:43.832Z,16.30
2018-09-27T04:47:13.505Z,16.30
2018-09-27T04:49:41.879Z,16.20
2018-09-27T04:52:10.279Z,16.30
2018-09-27T04:54:38.792Z,16.30
2018-09-27T04:57:07.841Z,16.40
2018-09-27T04:59:36.249Z,16.40
2018-09-27T05:02:04.598Z,16.40
2018-09-27T05:04:33.092Z,16.40
2018-09-27T05:07:01.540Z,16.40
2018-09-27T05:09:29.761Z,16.40
2018-09-27T05:11:58.232Z,16.30
2018-09-27T05:14:26.523Z,16.30
2018-09-27T05:16:54.964Z,16.30
2018-09-27T05:19:23.505Z,16.20
2018-09-27T05:21:51.929Z,16.20
2018-09-27T05:24:20.304Z,16.20
2018-09-27T05:26:48.876Z,16.30
2018-09-27T05:29:17.536Z,16.30
2018-09-27T05:31:45.940Z,16.30
2018-09-27T05:34:14.480Z,16.30
2018-09-27T05:36:43.006Z,16.30
2018-09-27T05:39:11.759Z,16.30
2018-09-27T05:41:40.483Z,16.30
2018-09-27T05:44:09.271Z,16.30
2018-09-27T05:46:37.558Z,16.30
2018-09-27T05:49:06.012Z,16.30
2018-09-27T05:51:34.550Z,16.30
2018-09-27T05:54:03.993Z,16.20
2018-09-27T05:56:32.424Z,16.20
2018-09-27T05:59:00.942Z,16.30
2018-09-27T06:01:29.219Z,16.30
2018-09-27T06:03:58.017Z,16.40
2018-09-27T06:06:26.453Z,16.40
2018-09-27T06:08:55.883Z,16.40
2018-09-27T06:11:25.516Z,16.50
2018-09-27T06:13:54.707Z,16.50
2018-09-27T06:16:23.115Z,16.50
2018-09-27T06:18:51.552Z,16.50
2018-09-27T06:21:20.030Z,16.50
2018-09-27T06:23:48.684Z,16.50
2018-09-27T06:26:17.009Z,16.60
2018-09-27T06:28:45.636Z,16.60
2018-09-27T06:31:14.546Z,16.60
2018-09-27T06:33:43.133Z,16.70
2018-09-27T06:36:11.583Z,16.80
2018-09-27T06:38:39.990Z,16.80
2018-09-27T06:41:09.412Z,16.80
2018-09-27T06:43:38.164Z,16.80
2018-09-27T06:46:06.862Z,16.90
2018-09-27T06:48:43.135Z,16.90
2018-09-27T06:51:11.738Z,16.90
2018-09-27T06:53:40.383Z,16.90
2018-09-27T06:56:08.689Z,16.90
2018-09-27T06:58:37.232Z,17.00
2018-09-27T07:01:06.195Z,17.00
2018-09-27T07:03:34.921Z,17.00
2018-09-27T07:06:11.869Z,17.00
2018-09-27T07:08:50.681Z,17.00
2018-09-27T07:11:19.202Z,17.00
2018-09-27T07:13:47.761Z,17.00
2018-09-27T07:16:16.223Z,17.10
2018-09-27T07:18:44.586Z,17.10
2018-09-27T07:21:12.917Z,17.10
2018-09-27T07:23:41.453Z,17.20
2018-09-27T07:26:09.979Z,17.30
2018-09-27T07:28:38.467Z,17.20
2018-09-27T07:31:07.211Z,17.30
2018-09-27T07:33:35.558Z,17.20
2018-09-27T07:36:04.571Z,17.30
2018-09-27T07:38:33.665Z,17.30
2018-09-27T07:41:02.103Z,17.30
2018-09-27T07:43:30.568Z,17.30
2018-09-27T07:45:59.068Z,17.30
2018-09-27T07:48:27.536Z,17.40
2018-09-27T07:50:55.928Z,17.40
2018-09-27T07:53:24.445Z,17.40
2018-09-27T07:56:06.077Z,17.40
2018-09-27T07:58:34.338Z,17.40
2018-09-27T08:01:02.770Z,17.50
2018-09-27T08:03:38.049Z,17.60
2018-09-27T08:06:06.382Z,17.60
2018-09-27T08:08:34.728Z,17.50
2018-09-27T08:11:03.486Z,17.50
2018-09-27T08:13:32.070Z,17.50
2018-09-27T08:16:00.484Z,17.50
2018-09-27T08:18:28.994Z,17.40
2018-09-27T08:20:57.530Z,17.50
2018-09-27T08:23:25.838Z,17.50
2018-09-27T08:25:54.589Z,17.60
2018-09-27T08:28:23.147Z,17.60
2018-09-27T08:30:51.672Z,17.60
2018-09-27T08:33:20.063Z,17.70
2018-09-27T08:35:48.880Z,17.70
2018-09-27T08:38:17.384Z,17.70
2018-09-27T08:40:45.792Z,17.80
2018-09-27T08:43:14.342Z,17.80
2018-09-27T08:45:43.074Z,17.90
2018-09-27T08:48:11.469Z,17.90
2018-09-27T08:50:39.786Z,18.00
2018-09-27T08:53:08.121Z,18.00
2018-09-27T08:55:36.585Z,18.00
2018-09-27T08:58:05.108Z,18.10
2018-09-27T09:00:33.543Z,18.10
2018-09-27T09:03:02.372Z,18.10
2018-09-27T09:05:31.211Z,18.10
2018-09-27T09:07:59.589Z,18.20
2018-09-27T09:10:28.096Z,18.30
2018-09-27T09:12:56.577Z,18.30
2018-09-27T09:15:25.294Z,18.30
2018-09-27T09:17:53.574Z,18.20
2018-09-27T09:20:22.771Z,18.30
2018-09-27T09:22:51.221Z,18.30
2018-09-27T09:25:20.147Z,18.30
2018-09-27T09:27:48.578Z,18.30
2018-09-27T09:30:17.543Z,18.30
2018-09-27T09:32:45.991Z,18.40
2018-09-27T09:35:14.656Z,18.40
2018-09-27T09:37:43.531Z,18.40
2018-09-27T09:40:12.059Z,18.50
2018-09-27T09:42:40.666Z,18.50
2018-09-27T09:45:09.228Z,18.50
2018-09-27T09:47:37.576Z,18.60
2018-09-27T09:50:06.091Z,18.70
2018-09-27T09:52:34.298Z,18.70
2018-09-27T09:55:02.910Z,18.80
2018-09-27T09:57:31.336Z,18.90
2018-09-27T10:00:00.085Z,18.90
2018-09-27T10:02:28.770Z,18.90
2018-09-27T10:04:57.217Z,19.00
2018-09-27T10:07:26.356Z,19.00
2018-09-27T10:09:54.827Z,19.10
2018-09-27T10:12:23.054Z,19.10
2018-09-27T10:14:52.036Z,19.20
2018-09-27T10:17:20.366Z,19.20
2018-09-27T10:19:49.099Z,19.20
2018-09-27T10:22:17.401Z,19.20
2018-09-27T10:24:45.659Z,19.20
2018-09-27T10:27:14.194Z,19.20
2018-09-27T10:29:42.922Z,19.20
2018-09-27T10:32:13.697Z,19.30
2018-09-27T10:37:24.957Z,19.40
2018-09-27T10:39:53.432Z,19.40
2018-09-27T10:42:22.182Z,19.50
2018-09-27T10:44:50.479Z,19.50
2018-09-27T10:47:19.027Z,19.50
2018-09-27T10:49:47.378Z,19.60
2018-09-27T10:52:15.752Z,19.60
2018-09-27T10:54:44.325Z,19.60
2018-09-27T10:57:12.678Z,19.60
2018-09-27T10:59:41.215Z,19.70
2018-09-27T11:02:09.868Z,19.70
2018-09-27T11:04:38.331Z,19.70
2018-09-27T11:07:06.789Z,19.80
2018-09-27T11:09:35.332Z,19.80
2018-09-27T11:12:03.799Z,19.80
2018-09-27T11:14:32.913Z,19.80
2018-09-27T11:17:01.536Z,19.80
2018-09-27T11:19:31.772Z,19.80
2018-09-27T11:22:00.354Z,19.90
2018-09-27T11:24:28.772Z,20.00
2018-09-27T11:26:57.243Z,20.00
2018-09-27T11:29:31.649Z,20.00
2018-09-27T11:32:05.510Z,20.00
2018-09-27T11:34:36.987Z,20.10
2018-09-27T11:37:06.080Z,20.00
2018-09-27T11:39:34.442Z,20.10
2018-09-27T11:42:03.173Z,20.10
2018-09-27T11:44:32.079Z,20.10
2018-09-27T11:47:00.594Z,20.10
2018-09-27T11:49:29.356Z,20.10
2018-09-27T11:51:57.574Z,20.10
2018-09-27T11:54:26.114Z,20.10
2018-09-27T11:56:54.714Z,20.10
2018-09-27T11:59:23.146Z,20.20
2018-09-27T12:01:51.793Z,20.30
2018-09-27T12:04:20.070Z,20.30
2018-09-27T12:06:48.817Z,20.40
2018-09-27T12:09:17.159Z,20.50
2018-09-27T12:11:45.661Z,20.50
2018-09-27T12:14:14.588Z,20.40
2018-09-27T12:16:42.938Z,20.40
2018-09-27T12:19:11.205Z,20.40
2018-09-27T12:21:39.726Z,20.50
2018-09-27T12:24:08.102Z,20.50
2018-09-27T12:26:36.498Z,20.50
2018-09-27T12:29:04.888Z,20.60
2018-09-27T12:31:33.332Z,20.60
2018-09-27T12:34:01.642Z,20.70
2018-09-27T12:36:30.248Z,20.70
2018-09-27T12:38:58.612Z,20.70
2018-09-27T12:41:27.131Z,20.70
2018-09-27T12:43:55.678Z,20.70
2018-09-27T12:46:24.008Z,20.80
2018-09-27T12:48:52.485Z,20.80
2018-09-27T12:51:21.187Z,20.80
2018-09-27T12:53:49.563Z,20.80
2018-09-27T12:56:18.099Z,20.80
2018-09-27T12:58:46.730Z,20.80
2018-09-27T13:01:15.137Z,20.80
2018-09-27T13:03:43.553Z,20.80
2018-09-27T13:06:12.080Z,20.70
2018-09-27T13:08:40.620Z,20.80
2018-09-27T13:11:09.358Z,20.80
2018-09-27T13:13:37.830Z,20.80
2018-09-27T13:16:06.555Z,20.80
2018-09-27T13:18:34.926Z,20.80
2018-09-27T13:21:03.645Z,20.80
2018-09-27T13:23:32.131Z,20.80
2018-09-27T13:26:00.650Z,20.90
2018-09-27T13:28:29.164Z,20.90
2018-09-27T13:30:57.687Z,20.90
2018-09-27T13:33:26.934Z,20.90
2018-09-27T13:35:55.395Z,20.90
2018-09-27T13:38:23.938Z,21.00
2018-09-27T13:41:07.298Z,21.00
2018-09-27T13:43:37.585Z,21.00
2018-09-27T13:46:06.770Z,21.00
2018-09-27T13:48:35.914Z,21.00
2018-09-27T13:51:04.606Z,21.00
2018-09-27T13:53:32.931Z,21.00
2018-09-27T13:56:01.426Z,20.90
2018-09-27T13:58:29.741Z,21.00
2018-09-27T14:00:58.294Z,21.00
2018-09-27T14:03:26.771Z,21.00
2018-09-27T14:05:55.097Z,21.00
2018-09-27T14:08:23.738Z,21.00
2018-09-27T14:10:52.100Z,21.00
2018-09-27T14:13:20.963Z,21.00
2018-09-27T14:15:49.629Z,21.00
2018-09-27T14:18:19.260Z,21.00
2018-09-27T14:20:48.279Z,21.00
2018-09-27T14:23:16.926Z,21.00
2018-09-27T14:25:45.433Z,21.00
2018-09-27T14:28:13.689Z,21.00
2018-09-27T14:30:42.126Z,21.00
2018-09-27T14:33:10.816Z,21.00
2018-09-27T14:35:39.243Z,21.00
2018-09-27T14:38:07.986Z,21.00
2018-09-27T14:40:36.489Z,21.00
2018-09-27T14:43:04.884Z,21.00
2018-09-27T14:45:33.372Z,21.10
2018-09-27T14:48:02.064Z,21.10
2018-09-27T14:50:30.412Z,21.10
2018-09-27T14:52:58.933Z,21.10
2018-09-27T14:55:27.412Z,21.10
2018-09-27T14:57:55.871Z,21.10
2018-09-27T15:00:24.361Z,21.10
2018-09-27T15:02:53.214Z,21.10
2018-09-27T15:05:21.695Z,21.10
2018-09-27T15:07:50.812Z,21.10
2018-09-27T15:10:19.132Z,21.10
2018-09-27T15:12:47.834Z,21.10
2018-09-27T15:15:16.853Z,21.10
2018-09-27T15:17:45.329Z,21.10
2018-09-27T15:20:13.854Z,21.10
2018-09-27T15:22:42.593Z,21.10
2018-09-27T15:25:11.643Z,21.10
2018-09-27T15:27:40.013Z,21.10
2018-09-27T15:30:09.140Z,21.10
2018-09-27T15:32:37.624Z,21.10
2018-09-27T15:35:06.036Z,21.00
2018-09-27T15:37:34.768Z,21.10
2018-09-27T15:40:04.199Z,21.00
2018-09-27T15:42:32.518Z,21.00
2018-09-27T15:45:01.976Z,21.00
2018-09-27T15:47:30.550Z,21.00
2018-09-27T15:49:59.319Z,21.00
2018-09-27T15:52:27.678Z,21.00
2018-09-27T15:54:56.489Z,21.00
2018-09-27T15:57:25.044Z,21.00
2018-09-27T15:59:53.806Z,21.00
2018-09-27T16:02:22.273Z,21.00
2018-09-27T16:04:50.670Z,20.90
2018-09-27T16:07:19.592Z,20.90
2018-09-27T16:09:48.685Z,20.90
2018-09-27T16:12:17.228Z,20.90
2018-09-27T16:14:46.593Z,20.80
2018-09-27T16:17:14.981Z,20.80
2018-09-27T16:19:43.454Z,20.80
2018-09-27T16:22:12.295Z,20.70
2018-09-27T16:24:40.874Z,20.70
2018-09-27T16:27:09.384Z,20.70
2018-09-27T16:29:38.025Z,20.70
2018-09-27T16:32:06.523Z,20.70
2018-09-27T16:34:35.052Z,20.70
2018-09-27T16:37:03.787Z,20.70
2018-09-27T16:39:32.443Z,20.60
2018-09-27T16:42:01.051Z,20.60
2018-09-27T16:44:29.575Z,20.60
2018-09-27T16:46:58.251Z,20.60
2018-09-27T16:49:27.011Z,20.60
2018-09-27T16:51:55.992Z,20.50
2018-09-27T16:54:25.102Z,20.50
2018-09-27T16:56:54.456Z,20.50
2018-09-27T16:59:22.891Z,20.50
2018-09-27T17:01:51.673Z,20.40
2018-09-27T17:04:21.196Z,20.40
2018-09-27T17:06:49.513Z,20.40
2018-09-27T17:09:17.954Z,20.40
2018-09-27T17:11:46.814Z,20.40
2018-09-27T17:14:15.303Z,20.30
2018-09-27T17:16:43.993Z,20.30
2018-09-27T17:19:12.322Z,20.30
2018-09-27T17:21:40.956Z,20.30
2018-09-27T17:24:09.513Z,20.20
2018-09-27T17:26:38.300Z,20.20
2018-09-27T17:29:06.807Z,20.20
2018-09-27T17:31:35.401Z,20.20
2018-09-27T17:34:05.377Z,20.10
2018-09-27T17:36:33.902Z,20.10
2018-09-27T17:39:03.216Z,20.10
2018-09-27T17:41:31.762Z,20.10
2018-09-27T17:44:00.829Z,20.10
2018-09-27T17:46:29.666Z,20.10
2018-09-27T17:48:58.584Z,20.00
2018-09-27T17:51:27.418Z,20.00
2018-09-27T17:53:55.834Z,20.00
2018-09-27T17:56:24.921Z,20.00
2018-09-27T17:58:53.772Z,20.00
2018-09-27T18:01:22.888Z,20.00
2018-09-27T18:03:51.344Z,20.00
2018-09-27T18:06:19.990Z,20.00
2018-09-27T18:08:49.260Z,20.00
2018-09-27T18:11:18.025Z,20.00
2018-09-27T18:13:46.718Z,20.00
2018-09-27T18:16:18.637Z,19.90
2018-09-27T18:18:48.370Z,19.90
2018-09-27T18:21:23.353Z,19.90
2018-09-27T18:23:52.043Z,19.90
2018-09-27T18:26:21.045Z,19.90
2018-09-27T18:28:49.923Z,19.90
2018-09-27T18:31:18.440Z,19.90
2018-09-27T18:33:46.735Z,19.80
2018-09-27T18:36:15.264Z,19.80
2018-09-27T18:38:44.419Z,19.80
2018-09-27T18:41:13.120Z,19.80
2018-09-27T18:43:41.831Z,19.80
2018-09-27T18:46:10.290Z,19.70
2018-09-27T18:48:38.848Z,19.70
2018-09-27T18:51:07.937Z,19.70
2018-09-27T18:53:37.298Z,19.70
2018-09-27T18:56:05.688Z,19.70
2018-09-27T18:58:34.250Z,19.70
2018-09-27T19:01:02.835Z,19.70
2018-09-27T19:03:31.502Z,19.60
2018-09-27T19:06:00.090Z,19.60
2018-09-27T19:08:28.733Z,19.60
2018-09-27T19:10:57.168Z,19.60
2018-09-27T19:13:25.708Z,19.60
2018-09-27T19:15:54.160Z,19.60
2018-09-27T19:18:22.763Z,19.60
2018-09-27T19:20:51.474Z,19.60
2018-09-27T19:23:21.440Z,19.60
2018-09-27T19:25:50.065Z,19.60
2018-09-27T19:28:20.635Z,19.50
2018-09-27T19:30:49.025Z,19.50
2018-09-27T19:33:17.710Z,19.50
2018-09-27T19:35:46.182Z,19.50
2018-09-27T19:38:14.682Z,19.50
2018-09-27T19:40:43.458Z,19.40
2018-09-27T19:43:12.560Z,19.40
2018-09-27T19:45:41.352Z,19.40
2018-09-27T19:48:09.994Z,19.40
2018-09-27T19:50:39.538Z,19.40
2018-09-27T19:53:08.283Z,19.40
2018-09-27T19:55:37.352Z,19.40
2018-09-27T19:58:07.161Z,19.40
2018-09-27T20:00:36.448Z,19.40
2018-09-27T20:03:05.137Z,19.30
2018-09-27T20:05:33.766Z,19.30
2018-09-27T20:08:02.862Z,19.30
2018-09-27T20:10:31.536Z,19.30
2018-09-27T20:13:00.621Z,19.30
2018-09-27T20:15:29.566Z,19.20
2018-09-27T20:18:02.388Z,19.20
2018-09-27T20:20:32.314Z,19.20
2018-09-27T20:23:00.922Z,19.20
2018-09-27T20:25:29.957Z,19.20
2018-09-27T20:27:58.932Z,19.20
2018-09-27T20:30:27.501Z,19.20
2018-09-27T20:32:56.646Z,19.20
2018-09-27T20:35:25.826Z,19.20
2018-09-27T20:37:54.514Z,19.10
2018-09-27T20:40:27.746Z,19.10
2018-09-27T20:42:56.665Z,19.10
2018-09-27T20:45:25.960Z,19.10
2018-09-27T20:47:55.511Z,19.10
2018-09-27T20:50:24.174Z,19.00
2018-09-27T20:52:52.758Z,19.00
2018-09-27T20:55:21.258Z,19.00
2018-09-27T20:57:49.747Z,19.00
2018-09-27T21:00:18.197Z,19.00
2018-09-27T21:02:46.660Z,19.00
2018-09-27T21:05:15.384Z,18.90
2018-09-27T21:07:44.790Z,18.90
2018-09-27T21:10:14.800Z,18.90
2018-09-27T21:12:44.431Z,18.90
2018-09-27T21:15:13.327Z,18.90
2018-09-27T21:17:41.771Z,18.90
2018-09-27T21:20:10.394Z,18.90
2018-09-27T21:22:38.894Z,18.80
2018-09-27T21:25:07.718Z,18.80
2018-09-27T21:27:36.279Z,18.80
2018-09-27T21:30:05.325Z,18.70
2018-09-27T21:32:34.037Z,18.70
2018-09-27T21:35:03.623Z,18.70
2018-09-27T21:37:32.596Z,18.70
2018-09-27T21:40:01.218Z,18.70
2018-09-27T21:42:30.472Z,18.70
2018-09-27T21:44:59.653Z,18.70
2018-09-27T21:47:29.636Z,18.60
2018-09-27T21:49:59.156Z,18.60
2018-09-27T21:52:27.554Z,18.60
2018-09-27T21:54:56.042Z,18.60
2018-09-27T21:57:24.599Z,18.60
2018-09-27T21:59:53.328Z,18.50
2018-09-27T22:02:21.862Z,18.60
2018-09-27T22:04:50.226Z,18.50
2018-09-27T22:07:18.790Z,18.50
2018-09-27T22:09:47.138Z,18.50
2018-09-27T22:12:16.363Z,18.50
2018-09-27T22:14:45.431Z,18.40
2018-09-27T22:17:14.589Z,18.40
2018-09-27T22:19:43.323Z,18.40
2018-09-27T22:22:11.945Z,18.40
2018-09-27T22:24:40.873Z,18.40
2018-09-27T22:27:09.644Z,18.40
2018-09-27T22:29:37.895Z,18.40
2018-09-27T22:32:06.611Z,18.30
2018-09-27T22:34:36.385Z,18.30
2018-09-27T22:37:05.508Z,18.30
2018-09-27T22:39:33.768Z,18.30
2018-09-27T22:42:02.265Z,18.30
2018-09-27T22:44:31.325Z,18.30
2018-09-27T22:46:59.814Z,18.20
2018-09-27T22:49:29.084Z,18.20
2018-09-27T22:51:58.249Z,18.20
2018-09-27T22:54:27.098Z,18.20
2018-09-27T22:56:55.759Z,18.20
2018-09-27T22:59:24.522Z,18.20
2018-09-27T23:01:53.039Z,18.10
2018-09-27T23:04:21.838Z,18.10
2018-09-27T23:06:50.412Z,18.10
2018-09-27T23:09:19.047Z,18.10
2018-09-27T23:11:47.774Z,18.00
2018-09-27T23:14:16.678Z,18.00
2018-09-27T23:16:45.116Z,18.00
2018-09-27T23:19:13.635Z,18.00
2018-09-27T23:21:42.039Z,18.00
2018-09-27T23:24:10.422Z,18.00
2018-09-27T23:26:38.755Z,17.90
2018-09-27T23:29:06.986Z,17.90
2018-09-27T23:31:35.884Z,17.90
2018-09-27T23:34:04.618Z,17.90
2018-09-27T23:36:33.104Z,17.80
2018-09-27T23:39:01.600Z,17.80
2018-09-27T23:41:30.084Z,17.80
2018-09-27T23:43:58.386Z,17.80
2018-09-27T23:46:26.722Z,17.80
2018-09-27T23:48:55.047Z,17.80
2018-09-27T23:51:23.595Z,17.70
2018-09-27T23:53:52.131Z,17.70
2018-09-27T23:56:20.578Z,17.70
2018-09-27T23:58:48.952Z,17.70
